Time;durP1;ratioP1;P1;durP2;ratioP2;P2;SDS_P1;SDS_P2;PMS_P1;PMS_P2;Temp;Humidity;BMP_temperature;BMP_pressure;BME280_temperature;BME280_humidity;BME280_pressure;Samples;Min_cycle;Max_cycle;Signal;HPM_P1;HPM_P2
2022/08/18 00:01:09;;;;;;;6.97;6.47;;;19.20;99.90;;;;;;5052720;28;20526;-79
2022/08/18 00:03:36;;;;;;;7.30;6.63;;;19.20;99.90;;;;;;5053183;28;20445;-79
2022/08/18 00:06:03;;;;;;;7.73;7.23;;;19.20;99.90;;;;;;5052853;28;20502;-79
2022/08/18 00:08:30;;;;;;;8.43;7.73;;;19.10;99.90;;;;;;5052794;28;20456;-79
2022/08/18 00:10:57;;;;;;;7.63;6.97;;;19.10;99.90;;;;;;5052824;28;20456;-79
2022/08/18 00:13:24;;;;;;;8.47;7.77;;;19.10;99.90;;;;;;5052888;28;20487;-79
2022/08/18 00:15:52;;;;;;;7.00;6.60;;;19.10;99.90;;;;;;5052979;28;20452;-79
2022/08/18 00:18:19;;;;;;;7.30;6.70;;;19.20;99.90;;;;;;5052489;28;20813;-79
2022/08/18 00:20:47;;;;;;;8.23;7.17;;;19.20;99.90;;;;;;5052489;28;20448;-79
2022/08/18 00:23:14;;;;;;;7.07;6.50;;;19.10;99.90;;;;;;5052924;28;20462;-79
2022/08/18 00:25:41;;;;;;;8.90;8.10;;;19.20;99.90;;;;;;5052942;28;20456;-79
2022/08/18 00:28:08;;;;;;;6.60;6.00;;;19.20;99.90;;;;;;5052545;28;20546;-79
2022/08/18 00:30:35;;;;;;;6.90;6.40;;;19.20;99.90;;;;;;5052662;28;20456;-79
2022/08/18 00:33:03;;;;;;;8.20;7.60;;;19.20;99.90;;;;;;5052738;28;20480;-78
2022/08/18 00:35:32;;;;;;;7.70;7.13;;;19.30;99.90;;;;;;5052627;28;20440;-79
2022/08/18 00:38:01;;;;;;;7.07;6.47;;;19.30;99.90;;;;;;5053782;28;20449;-79
2022/08/18 00:40:31;;;;;;;6.60;6.00;;;19.40;99.90;;;;;;5056055;28;20849;-79
2022/08/18 00:43:01;;;;;;;7.40;6.87;;;19.40;99.90;;;;;;5056151;28;20460;-79
2022/08/18 00:45:32;;;;;;;7.03;6.53;;;19.50;99.90;;;;;;5056251;28;20448;-79
2022/08/18 00:47:59;;;;;;;6.90;6.40;;;19.60;99.90;;;;;;5055761;28;20451;-79
2022/08/18 00:50:32;;;;;;;7.43;6.83;;;19.60;99.90;;;;;;5055552;28;20475;-79
2022/08/18 00:53:04;;;;;;;6.87;6.37;;;19.70;99.90;;;;;;5055938;28;20521;-79
2022/08/18 00:55:33;;;;;;;6.80;6.30;;;19.70;99.90;;;;;;5055679;28;20467;-79
2022/08/18 00:58:06;;;;;;;6.37;5.87;;;19.70;99.90;;;;;;5055805;28;20444;-79
2022/08/18 01:00:33;;;;;;;7.33;6.80;;;19.80;99.90;;;;;;5055591;28;20837;-79
2022/08/18 01:03:06;;;;;;;6.77;6.17;;;19.80;99.90;;;;;;5056104;28;20444;-80
2022/08/18 01:05:39;;;;;;;6.47;5.87;;;19.70;99.90;;;;;;5055677;28;20458;-79
2022/08/18 01:08:10;;;;;;;6.40;6.00;;;19.80;99.90;;;;;;5055505;28;20455;-79
2022/08/18 01:10:38;;;;;;;9.30;7.53;;;19.80;99.90;;;;;;5055676;28;20517;-79
2022/08/18 01:13:05;;;;;;;7.20;6.70;;;19.80;99.90;;;;;;5055835;28;20549;-79
2022/08/18 01:15:32;;;;;;;6.33;5.93;;;19.80;99.90;;;;;;5055637;28;20463;-79
2022/08/18 01:23:40;;;;;;;8.00;7.40;;;19.90;99.90;;;;;;5055291;28;20444;-80
2022/08/18 01:26:08;;;;;;;7.30;6.77;;;19.80;99.90;;;;;;5055396;28;20461;-79
2022/08/18 01:28:37;;;;;;;7.60;7.00;;;19.90;99.90;;;;;;5054852;28;20826;-79
2022/08/18 01:31:05;;;;;;;7.20;6.70;;;19.80;99.90;;;;;;5055156;28;20459;-80
2022/08/18 01:33:35;;;;;;;6.30;5.70;;;19.80;99.90;;;;;;5055046;28;20492;-79
2022/08/18 01:36:15;;;;;;;6.50;6.00;;;19.80;99.90;;;;;;5054948;28;20454;-79
2022/08/18 01:38:43;;;;;;;7.10;6.53;;;19.80;99.90;;;;;;5055008;28;20841;-80
2022/08/18 01:41:10;;;;;;;7.83;7.27;;;19.90;99.90;;;;;;5055045;28;20472;-79
2022/08/18 01:43:38;;;;;;;6.93;6.43;;;19.80;99.90;;;;;;5055094;28;20449;-79
2022/08/18 01:46:06;;;;;;;8.20;7.60;;;19.80;99.90;;;;;;5054669;28;20457;-80
2022/08/18 01:48:34;;;;;;;8.10;7.40;;;19.70;99.90;;;;;;5054090;28;20482;-79
2022/08/18 01:51:02;;;;;;;8.10;7.50;;;19.60;99.90;;;;;;5054544;28;20464;-79
2022/08/18 01:53:29;;;;;;;7.30;6.70;;;19.50;99.90;;;;;;5055162;28;20488;-79
2022/08/18 01:55:57;;;;;;;8.37;7.57;;;19.50;99.90;;;;;;5054773;28;20545;-79
2022/08/18 01:58:26;;;;;;;8.07;7.27;;;19.50;99.90;;;;;;5054524;28;20455;-79
2022/08/18 02:00:55;;;;;;;7.70;7.10;;;19.40;99.90;;;;;;5054074;28;20452;-80
2022/08/18 02:03:25;;;;;;;7.13;6.53;;;19.40;99.90;;;;;;5054323;28;20451;-79
2022/08/18 02:05:58;;;;;;;8.00;7.40;;;19.30;99.90;;;;;;5054776;28;20471;-79
2022/08/18 02:08:24;;;;;;;7.57;6.97;;;19.20;99.90;;;;;;5054067;28;20468;-80
2022/08/18 02:10:51;;;;;;;7.00;6.50;;;19.20;99.90;;;;;;5054676;28;20456;-79
2022/08/18 02:13:19;;;;;;;7.07;6.47;;;19.10;99.90;;;;;;5054990;28;20854;-80
2022/08/18 02:15:46;;;;;;;6.90;6.20;;;19.20;99.90;;;;;;5054691;28;20455;-80
2022/08/18 02:18:14;;;;;;;7.93;7.23;;;19.10;99.90;;;;;;5053969;28;20457;-79
2022/08/18 02:20:42;;;;;;;6.57;6.07;;;18.80;99.90;;;;;;5054341;28;20440;-80
2022/08/18 02:23:08;;;;;;;6.83;6.23;;;18.70;99.90;;;;;;5054053;28;20490;-80
2022/08/18 02:25:35;;;;;;;7.40;6.70;;;18.70;99.90;;;;;;5054610;28;20445;-79
2022/08/18 02:28:02;;;;;;;6.90;6.43;;;18.70;99.90;;;;;;5053452;28;20815;-80
2022/08/18 02:30:30;;;;;;;7.70;7.13;;;18.80;99.90;;;;;;5054080;28;20475;-79
2022/08/18 02:32:57;;;;;;;7.57;6.07;;;18.70;99.90;;;;;;5054082;28;20492;-79
2022/08/18 02:35:25;;;;;;;7.20;6.60;;;18.60;99.90;;;;;;5053932;28;20458;-79
2022/08/18 02:37:51;;;;;;;7.47;6.97;;;18.50;99.90;;;;;;5053726;28;20448;-79
2022/08/18 02:40:19;;;;;;;7.60;7.00;;;18.50;99.90;;;;;;5053548;28;20479;-80
2022/08/18 02:42:47;;;;;;;7.77;7.17;;;18.40;99.90;;;;;;5054258;28;20451;-79
2022/08/18 02:45:14;;;;;;;7.70;7.10;;;18.50;99.90;;;;;;5053921;28;20452;-79
2022/08/18 02:47:43;;;;;;;6.90;6.37;;;18.40;99.90;;;;;;5053269;28;20460;-80
2022/08/18 02:50:10;;;;;;;8.23;7.53;;;18.40;99.90;;;;;;5053310;28;20475;-80
2022/08/18 02:52:37;;;;;;;8.00;7.13;;;18.40;99.90;;;;;;5053699;28;20460;-79
2022/08/18 02:55:04;;;;;;;8.43;7.70;;;18.50;99.90;;;;;;5053355;28;20468;-79
2022/08/18 02:57:31;;;;;;;6.93;6.33;;;18.60;99.90;;;;;;5053472;28;20462;-79
2022/08/18 03:00:00;;;;;;;7.80;7.20;;;18.70;99.90;;;;;;5052853;28;20473;-80
2022/08/18 03:02:27;;;;;;;7.30;6.70;;;18.70;99.90;;;;;;5053048;28;20459;-80
2022/08/18 03:04:55;;;;;;;7.53;7.03;;;18.90;99.90;;;;;;5053416;28;20955;-80
2022/08/18 03:07:22;;;;;;;8.97;8.27;;;18.90;99.90;;;;;;5053427;28;20451;-79
2022/08/18 03:09:48;;;;;;;7.60;7.10;;;19.00;99.90;;;;;;5053087;28;20472;-80
2022/08/18 03:12:15;;;;;;;7.30;6.70;;;19.00;99.90;;;;;;5053515;28;20456;-80
2022/08/18 03:14:42;;;;;;;8.00;7.40;;;19.00;99.90;;;;;;5052907;28;20479;-80
2022/08/18 03:17:09;;;;;;;12.90;7.53;;;19.10;99.90;;;;;;5053282;28;21008;-80
2022/08/18 03:19:37;;;;;;;7.00;6.40;;;19.10;99.90;;;;;;5052365;28;20507;-80
2022/08/18 03:22:07;;;;;;;8.43;7.80;;;19.00;99.90;;;;;;5053229;28;20869;-80
2022/08/18 03:24:35;;;;;;;7.40;6.80;;;18.90;99.90;;;;;;5053752;28;20455;-79
2022/08/18 03:27:05;;;;;;;8.20;7.50;;;18.80;99.90;;;;;;5052903;28;20506;-79
2022/08/18 03:29:32;;;;;;;7.00;6.50;;;18.80;99.90;;;;;;5053045;28;20467;-80
2022/08/18 03:31:59;;;;;;;8.33;7.63;;;18.70;99.90;;;;;;5052869;28;20855;-79
2022/08/18 03:34:26;;;;;;;7.70;7.10;;;18.70;99.90;;;;;;5053226;28;20480;-80
2022/08/18 03:36:53;;;;;;;8.97;8.27;;;18.70;99.90;;;;;;5052737;28;20462;-79
2022/08/18 03:39:22;;;;;;;8.53;7.80;;;18.80;99.90;;;;;;5053050;28;20472;-80
2022/08/18 03:41:52;;;;;;;7.00;6.50;;;18.90;99.90;;;;;;5052725;28;20961;-79
2022/08/18 03:44:18;;;;;;;8.03;7.37;;;19.00;99.90;;;;;;5052954;28;20446;-80
2022/08/18 03:46:45;;;;;;;7.00;6.50;;;19.00;99.90;;;;;;5052390;28;20466;-79
2022/08/18 03:49:13;;;;;;;8.73;8.03;;;19.10;99.90;;;;;;5052059;28;20514;-80
2022/08/18 03:51:44;;;;;;;8.20;7.47;;;19.10;99.90;;;;;;5052972;28;20451;-80
2022/08/18 03:54:12;;;;;;;7.77;7.17;;;19.10;99.90;;;;;;5052904;28;20578;-80
2022/08/18 03:56:41;;;;;;;7.70;7.10;;;19.20;99.90;;;;;;5052655;28;20822;-80
2022/08/18 03:59:11;;;;;;;8.30;7.50;;;19.20;99.90;;;;;;5051994;28;20472;-79
2022/08/18 04:01:40;;;;;;;9.43;8.53;;;19.30;99.90;;;;;;5053060;28;20471;-79
2022/08/18 04:04:09;;;;;;;7.73;7.03;;;19.30;99.90;;;;;;5055195;28;20447;-81
2022/08/18 04:06:40;;;;;;;8.10;7.47;;;19.30;99.90;;;;;;5055111;28;20463;-81
2022/08/18 04:09:10;;;;;;;8.80;8.10;;;19.20;99.90;;;;;;5055523;28;20464;-81
2022/08/18 04:11:37;;;;;;;8.00;7.40;;;19.20;99.90;;;;;;5056919;28;20440;-81
2022/08/18 04:14:06;;;;;;;8.90;8.10;;;19.10;99.90;;;;;;5059320;28;20491;-81
2022/08/18 04:16:33;;;;;;;8.37;7.57;;;19.20;99.90;;;;;;5058862;28;20452;-81
2022/08/18 04:19:02;;;;;;;8.43;7.77;;;19.10;99.90;;;;;;5058841;28;20866;-81
2022/08/18 04:21:30;;;;;;;9.70;8.90;;;19.10;99.90;;;;;;5058304;28;20448;-81
2022/08/18 04:23:58;;;;;;;8.00;7.20;;;19.10;99.90;;;;;;5058357;28;20466;-81
2022/08/18 04:26:25;;;;;;;8.97;8.13;;;19.00;99.90;;;;;;5058911;28;20459;-81
2022/08/18 04:28:52;;;;;;;8.60;7.90;;;19.00;99.90;;;;;;5058373;28;20474;-81
2022/08/18 04:31:23;;;;;;;8.20;7.60;;;19.00;99.90;;;;;;5072772;22;20508;-83
2022/08/18 04:33:50;;;;;;;9.70;8.80;;;18.90;99.90;;;;;;5062617;28;20478;-83
2022/08/18 04:36:16;;;;;;;7.83;7.13;;;18.80;99.90;;;;;;5060043;28;20458;-84
2022/08/18 04:38:44;;;;;;;9.00;8.10;;;18.80;99.90;;;;;;5061947;28;20546;-84
2022/08/18 04:41:12;;;;;;;8.73;8.03;;;18.90;99.90;;;;;;5062296;28;20472;-83
2022/08/18 04:43:40;;;;;;;8.33;7.63;;;19.00;99.90;;;;;;5062615;28;20471;-83
2022/08/18 04:46:07;;;;;;;8.27;7.57;;;19.10;99.90;;;;;;5062863;28;20452;-84
2022/08/18 04:48:36;;;;;;;8.63;7.93;;;19.10;99.90;;;;;;5062217;28;20456;-84
2022/08/18 04:51:08;;;;;;;9.00;8.00;;;19.00;99.90;;;;;;5063078;28;20500;-83
2022/08/18 04:53:46;;;;;;;9.43;8.60;;;19.10;99.90;;;;;;5061810;28;20490;-83
2022/08/18 04:56:25;;;;;;;8.40;7.70;;;19.20;99.90;;;;;;5060380;28;20449;-82
2022/08/18 04:58:53;;;;;;;8.23;7.53;;;19.30;99.90;;;;;;5054234;28;20498;-82
2022/08/18 05:01:22;;;;;;;9.20;8.40;;;19.20;99.90;;;;;;5073056;28;20489;-82
2022/08/18 05:03:52;;;;;;;9.07;8.27;;;19.20;99.90;;;;;;5074364;28;20455;-82
2022/08/18 05:06:20;;;;;;;8.60;7.90;;;19.30;99.90;;;;;;5074559;28;20448;-82
2022/08/18 05:08:47;;;;;;;9.30;8.60;;;19.30;99.90;;;;;;5071650;28;20992;-82
2022/08/18 05:11:14;;;;;;;9.03;8.23;;;19.10;99.90;;;;;;5054442;28;20892;-83
2022/08/18 05:13:41;;;;;;;9.70;9.00;;;18.90;99.90;;;;;;5054028;28;21007;-82
2022/08/18 05:16:09;;;;;;;8.40;7.70;;;18.90;99.90;;;;;;5070546;28;20458;-82
2022/08/18 05:18:38;;;;;;;9.10;8.30;;;19.00;99.90;;;;;;5074593;28;20455;-82
2022/08/18 05:21:07;;;;;;;8.40;7.80;;;19.10;99.90;;;;;;5074717;28;20505;-82
2022/08/18 05:23:35;;;;;;;9.83;9.03;;;19.20;99.90;;;;;;5059092;28;20447;-82
2022/08/18 05:26:03;;;;;;;8.93;8.27;;;19.30;99.90;;;;;;5054954;28;20479;-82
2022/08/18 05:28:30;;;;;;;9.03;8.33;;;19.40;99.90;;;;;;5054808;28;20463;-82
2022/08/18 05:30:57;;;;;;;8.30;7.60;;;19.40;99.90;;;;;;5054672;28;20480;-82
2022/08/18 05:33:24;;;;;;;10.83;9.90;;;19.50;99.90;;;;;;5065374;28;20454;-82
2022/08/18 05:36:02;;;;;;;9.37;8.67;;;19.50;99.90;;;;;;5074982;28;20487;-82
2022/08/18 05:38:39;;;;;;;9.53;8.60;;;19.60;99.90;;;;;;5074457;28;20952;-82
2022/08/18 05:41:09;;;;;;;9.33;8.50;;;19.60;99.90;;;;;;5079821;28;20471;-82
2022/08/18 05:43:37;;;;;;;8.43;7.73;;;19.80;99.90;;;;;;5060653;28;20479;-83
2022/08/18 05:46:06;;;;;;;8.33;7.63;;;19.90;99.90;;;;;;5054485;28;20930;-83
2022/08/18 05:48:34;;;;;;;9.40;8.60;;;19.90;99.90;;;;;;5057277;28;20452;-82
2022/08/18 05:51:09;;;;;;;7.57;6.97;;;19.90;99.90;;;;;;5054820;28;20522;-83
2022/08/18 05:56:46;;;;;;;9.13;8.33;;;19.70;99.90;;;;;;5054740;28;20474;-82
2022/08/18 05:59:17;;;;;;;9.10;8.40;;;19.70;99.90;;;;;;5071444;28;20809;-83
2022/08/18 06:01:51;;;;;;;8.50;7.80;;;19.90;99.90;;;;;;5074672;28;20439;-83
2022/08/18 06:04:26;;;;;;;8.07;7.43;;;20.00;99.90;;;;;;5057644;28;20532;-83
2022/08/18 06:06:56;;;;;;;8.03;7.43;;;20.20;99.90;;;;;;5060832;28;20475;-83
2022/08/18 06:09:31;;;;;;;8.13;7.37;;;20.10;99.90;;;;;;5074069;28;20547;-84
2022/08/18 06:12:09;;;;;;;8.63;7.93;;;20.20;99.90;;;;;;5066769;28;20450;-84
2022/08/18 06:14:38;;;;;;;8.03;7.40;;;20.20;99.90;;;;;;5066126;28;20502;-83
2022/08/18 06:17:18;;;;;;;8.60;7.90;;;20.10;99.90;;;;;;5073536;28;20964;-84
2022/08/18 06:19:52;;;;;;;8.67;8.07;;;20.10;99.90;;;;;;5073490;28;20482;-83
2022/08/18 06:22:28;;;;;;;9.13;7.60;;;20.40;99.90;;;;;;5065479;28;20453;-83
2022/08/18 06:25:03;;;;;;;7.63;7.03;;;20.60;99.90;;;;;;5073949;28;20447;-84
2022/08/18 06:27:39;;;;;;;9.17;8.40;;;20.80;99.90;;;;;;5063251;28;20442;-84
2022/08/18 06:30:14;;;;;;;9.00;8.30;;;21.00;99.90;;;;;;5053886;28;20482;-83
2022/08/18 06:33:10;;;;;;;8.57;7.77;;;21.00;99.90;;;;;;5058395;28;20810;-84
2022/08/18 06:35:41;;;;;;;9.70;8.80;;;21.20;99.90;;;;;;5073961;28;20513;-83
2022/08/18 06:38:40;;;;;;;8.37;7.70;;;21.40;99.90;;;;;;5063003;28;20443;-83
2022/08/18 06:41:15;;;;;;;8.00;7.40;;;21.30;99.90;;;;;;5053681;28;20478;-84
2022/08/18 06:43:51;;;;;;;8.27;7.50;;;21.50;99.90;;;;;;5053046;28;20964;-83
2022/08/18 06:46:22;;;;;;;9.30;8.50;;;21.70;99.90;;;;;;5054232;28;20450;-83
2022/08/18 06:48:54;;;;;;;8.60;7.97;;;21.90;99.90;;;;;;5054266;28;20462;-83
2022/08/18 06:51:26;;;;;;;7.50;6.90;;;21.90;99.90;;;;;;5058365;28;20560;-84
2022/08/18 06:53:57;;;;;;;7.47;6.93;;;21.70;99.90;;;;;;5075800;28;20556;-83
2022/08/18 06:56:33;;;;;;;8.40;7.80;;;21.70;99.90;;;;;;5074631;28;20450;-84
2022/08/18 06:59:20;;;;;;;8.33;7.73;;;21.80;99.90;;;;;;5057438;28;20435;-85
2022/08/18 07:02:00;;;;;;;8.70;8.00;;;22.10;99.90;;;;;;5060631;28;20451;-84
2022/08/18 07:04:37;;;;;;;8.20;7.50;;;22.30;99.90;;;;;;5075160;28;20484;-84
2022/08/18 07:07:17;;;;;;;8.73;7.90;;;22.50;99.90;;;;;;5075171;28;20462;-84
2022/08/18 07:09:44;;;;;;;8.20;7.50;;;22.70;99.90;;;;;;5073812;28;20471;-84
2022/08/18 07:12:20;;;;;;;8.57;7.83;;;22.80;99.90;;;;;;5066143;28;20455;-84
2022/08/18 07:14:49;;;;;;;7.10;6.60;;;22.90;99.90;;;;;;5054840;28;20518;-84
2022/08/18 07:17:22;;;;;;;7.37;6.77;;;22.90;99.90;;;;;;5055707;28;20824;-84
2022/08/18 07:19:55;;;;;;;7.33;6.87;;;23.00;99.90;;;;;;5053932;28;20502;-84
2022/08/18 07:22:22;;;;;;;8.77;8.07;;;23.00;99.90;;;;;;5055540;28;20452;-85
2022/08/18 07:24:53;;;;;;;9.13;8.43;;;22.70;99.90;;;;;;5060898;28;20454;-84
2022/08/18 07:27:22;;;;;;;8.53;7.93;;;22.50;99.90;;;;;;5075468;28;20526;-83
2022/08/18 07:30:00;;;;;;;8.30;7.67;;;22.20;99.90;;;;;;5053444;28;20482;-83
2022/08/18 07:32:33;;;;;;;9.60;8.60;;;22.40;99.90;;;;;;5073980;28;20449;-82
2022/08/18 07:35:05;;;;;;;8.87;8.07;;;22.20;99.90;;;;;;5078108;28;20479;-82
2022/08/18 07:37:36;;;;;;;8.30;7.60;;;22.30;99.90;;;;;;5058911;28;20448;-82
2022/08/18 07:40:14;;;;;;;9.10;7.77;;;22.40;99.90;;;;;;5068673;28;20841;-82
2022/08/18 07:42:51;;;;;;;8.47;7.87;;;22.50;99.90;;;;;;5058295;28;20445;-82
2022/08/18 07:45:23;;;;;;;8.57;7.33;;;22.40;99.90;;;;;;5055681;28;20451;-81
2022/08/18 07:47:53;;;;;;;8.07;7.37;;;22.20;99.90;;;;;;5061098;28;20440;-82
2022/08/18 07:50:22;;;;;;;7.53;6.93;;;21.90;99.90;;;;;;5062510;28;20467;-81
2022/08/18 07:53:07;;;;;;;8.20;7.40;;;21.90;99.90;;;;;;5063760;28;20439;-81
2022/08/18 07:55:35;;;;;;;7.53;6.90;;;22.00;99.90;;;;;;5062923;28;20480;-81
2022/08/18 07:58:18;;;;;;;7.30;6.80;;;22.10;99.90;;;;;;5062868;28;20448;-81
2022/08/18 08:00:54;;;;;;;8.20;7.50;;;22.10;99.90;;;;;;5056041;28;20928;-82
2022/08/18 08:03:31;;;;;;;7.60;7.00;;;22.20;99.90;;;;;;5063963;28;20447;-84
2022/08/18 08:06:15;;;;;;;7.37;6.83;;;22.30;99.90;;;;;;5061497;28;20434;-83
2022/08/18 08:08:49;;;;;;;7.83;7.13;;;22.30;99.90;;;;;;5061510;28;20510;-85
2022/08/18 08:11:32;;;;;;;8.50;7.80;;;22.40;99.90;;;;;;5063337;28;20472;-82
2022/08/18 08:14:13;;;;;;;8.37;7.77;;;22.30;99.90;;;;;;5060048;28;20443;-83
2022/08/18 08:16:47;;;;;;;10.00;7.77;;;22.20;99.90;;;;;;5065321;28;20486;-83
2022/08/18 08:19:34;;;;;;;7.37;6.77;;;22.20;99.90;;;;;;5078579;28;20458;-83
2022/08/18 08:22:12;;;;;;;12.63;7.90;;;22.20;99.90;;;;;;5066622;28;20452;-82
2022/08/18 08:24:50;;;;;;;8.13;7.37;;;22.10;99.90;;;;;;5059847;28;20456;-82
2022/08/18 08:27:24;;;;;;;7.53;6.93;;;22.10;99.90;;;;;;5060919;28;20459;-83
2022/08/18 08:30:05;;;;;;;9.07;8.20;;;22.40;99.90;;;;;;5069512;28;20477;-83
2022/08/18 08:32:35;;;;;;;7.87;7.27;;;22.70;99.90;;;;;;5069040;28;20458;-85
2022/08/18 08:35:08;;;;;;;8.27;7.53;;;22.80;99.90;;;;;;5076237;28;20479;-84
2022/08/18 08:37:42;;;;;;;8.90;8.20;;;23.00;99.90;;;;;;5070346;28;20456;-83
2022/08/18 08:40:16;;;;;;;7.97;7.37;;;23.30;99.90;;;;;;5058611;28;20468;-83
2022/08/18 08:42:48;;;;;;;7.40;6.90;;;23.30;99.90;;;;;;5056877;28;20476;-83
2022/08/18 08:49:05;;;;;;;9.10;8.27;;;23.50;99.90;;;;;;5058275;28;20483;-86
2022/08/18 08:51:38;;;;;;;8.33;7.53;;;23.60;99.90;;;;;;5060027;28;20550;-84
2022/08/18 08:54:11;;;;;;;9.03;8.30;;;23.40;99.90;;;;;;5079971;28;20455;-85
2022/08/18 08:56:44;;;;;;;7.77;7.27;;;23.70;99.90;;;;;;5076720;28;20494;-84
2022/08/18 08:59:13;;;;;;;8.40;7.70;;;23.90;99.90;;;;;;5074772;28;20459;-84
2022/08/18 09:01:48;;;;;;;8.57;7.87;;;23.70;99.90;;;;;;5075485;28;20892;-83
2022/08/18 09:04:30;;;;;;;8.37;7.70;;;23.70;99.90;;;;;;5075279;28;20454;-83
2022/08/18 09:07:08;;;;;;;8.30;7.60;;;24.00;99.90;;;;;;5074669;28;20796;-84
2022/08/18 09:09:55;;;;;;;7.97;7.37;;;23.90;99.90;;;;;;5082266;28;20467;-83
2022/08/18 09:12:43;;;;;;;8.43;7.73;;;23.90;99.90;;;;;;5090616;28;20447;-84
2022/08/18 09:15:29;;;;;;;8.43;7.73;;;23.80;99.90;;;;;;5085373;28;20483;-85
2022/08/18 09:18:12;;;;;;;8.10;7.40;;;23.70;99.90;;;;;;5085792;28;20451;-86
2022/08/18 09:20:55;;;;;;;8.20;7.50;;;23.60;99.90;;;;;;5085423;28;20463;-84
2022/08/18 09:23:26;;;;;;;9.30;8.00;;;23.60;99.90;;;;;;5085124;28;20447;-85
2022/08/18 09:25:55;;;;;;;9.27;8.60;;;23.40;99.90;;;;;;5086024;28;20455;-84
2022/08/18 09:28:39;;;;;;;9.20;8.30;;;23.10;99.90;;;;;;5084977;28;20522;-86
2022/08/18 09:31:16;;;;;;;8.73;8.13;;;23.30;99.90;;;;;;5084201;28;20562;-85
2022/08/18 09:34:09;;;;;;;8.30;7.60;;;23.50;99.90;;;;;;5084141;28;20455;-84
2022/08/18 09:36:52;;;;;;;8.67;8.07;;;23.80;99.90;;;;;;5083487;28;20491;-85
2022/08/18 09:42:14;;;;;;;8.10;7.60;;;24.20;99.90;;;;;;5089781;28;20454;-83
2022/08/18 09:45:01;;;;;;;7.60;7.10;;;24.60;99.90;;;;;;5089292;28;20450;-83
2022/08/18 09:47:59;;;;;;;9.13;8.43;;;24.70;99.90;;;;;;5086487;28;20449;-84
2022/08/18 09:50:56;;;;;;;9.20;8.50;;;24.80;99.90;;;;;;5050864;28;20582;-83
2022/08/18 09:53:37;;;;;;;9.00;8.20;;;24.60;99.90;;;;;;5079578;28;20449;-84
2022/08/18 09:56:05;;;;;;;11.73;10.37;;;24.60;99.90;;;;;;5078528;28;20919;-83
2022/08/18 09:59:00;;;;;;;8.60;7.97;;;24.90;99.90;;;;;;5074510;28;20453;-83
2022/08/18 10:01:40;;;;;;;9.63;8.93;;;25.00;99.90;;;;;;5086033;28;20459;-83
2022/08/18 10:04:35;;;;;;;10.47;9.57;;;25.40;99.60;;;;;;5090508;28;20466;-81
2022/08/18 10:07:18;;;;;;;9.60;9.00;;;25.80;98.80;;;;;;5091439;28;20533;-84
2022/08/18 10:09:55;;;;;;;9.70;8.73;;;26.00;98.30;;;;;;5078541;28;20458;-84
2022/08/18 10:12:35;;;;;;;9.13;8.33;;;26.20;97.60;;;;;;5078265;28;20459;-83
2022/08/18 10:15:27;;;;;;;9.83;9.03;;;26.30;97.80;;;;;;5077894;28;20508;-84
2022/08/18 10:18:23;;;;;;;10.03;9.20;;;26.30;97.30;;;;;;5068204;28;20884;-84
2022/08/18 10:21:00;;;;;;;8.83;8.13;;;26.60;97.30;;;;;;5051525;28;20477;-84
2022/08/18 10:23:48;;;;;;;10.40;9.60;;;27.00;96.80;;;;;;5077277;28;20536;-83
2022/08/18 10:27:04;;;;;;;11.53;10.47;;;27.10;95.90;;;;;;5077967;28;20482;-84
2022/08/18 10:32:46;;;;;;;9.73;8.97;;;27.10;95.60;;;;;;5018665;22;20497;-80
2022/08/18 10:35:51;;;;;;;9.13;8.30;;;26.90;96.30;;;;;;4992927;28;20432;-80
2022/08/18 10:38:24;;;;;;;10.67;9.80;;;26.90;95.80;;;;;;4992437;28;20456;-80
2022/08/18 10:40:57;;;;;;;9.97;9.27;;;26.60;96.20;;;;;;4992565;28;20520;-80
2022/08/18 10:43:32;;;;;;;10.87;10.10;;;26.20;96.60;;;;;;4992603;28;20823;-80
2022/08/18 10:45:59;;;;;;;10.00;9.20;;;25.90;96.90;;;;;;4992223;28;20563;-80
2022/08/18 10:48:29;;;;;;;8.83;8.23;;;26.10;97.10;;;;;;4993986;28;20824;-80
2022/08/18 10:51:03;;;;;;;9.27;8.57;;;26.40;97.50;;;;;;4999699;28;20558;-80
2022/08/18 10:53:35;;;;;;;9.60;8.93;;;26.60;96.40;;;;;;4999117;28;20458;-80
2022/08/18 10:56:05;;;;;;;10.40;9.60;;;26.60;97.00;;;;;;5000384;28;20501;-80
2022/08/18 10:59:00;;;;;;;9.67;8.87;;;26.70;95.90;;;;;;4999752;28;20458;-79
2022/08/18 11:01:53;;;;;;;10.03;9.33;;;26.70;95.50;;;;;;4999993;28;20467;-80
2022/08/18 11:04:29;;;;;;;10.37;9.47;;;26.90;95.30;;;;;;4999263;28;20432;-80
2022/08/18 11:07:05;;;;;;;9.53;8.83;;;27.00;94.60;;;;;;4998681;28;20488;-79
2022/08/18 11:09:33;;;;;;;10.47;9.73;;;27.30;94.90;;;;;;4998864;28;20456;-80
2022/08/18 11:12:02;;;;;;;11.40;10.60;;;27.70;94.10;;;;;;4999195;28;20480;-80
2022/08/18 11:15:00;;;;;;;10.60;9.80;;;28.00;93.50;;;;;;4999208;28;20457;-83
2022/08/18 11:17:43;;;;;;;10.77;9.97;;;28.10;92.70;;;;;;5002179;28;20443;-81
2022/08/18 11:20:15;;;;;;;11.93;11.10;;;28.40;91.90;;;;;;5000201;28;20486;-84
2022/08/18 11:22:50;;;;;;;11.47;10.70;;;28.70;92.00;;;;;;4975720;28;20450;-80
2022/08/18 11:25:24;;;;;;;11.10;10.20;;;27.60;91.60;;;;;;4985761;28;20456;-82
2022/08/18 11:27:50;;;;;;;13.50;12.43;;;27.20;93.10;;;;;;4997251;28;20441;-80
2022/08/18 11:30:19;;;;;;;12.00;11.10;;;27.10;93.20;;;;;;4995723;28;20459;-80
2022/08/18 11:32:48;;;;;;;11.13;10.10;;;27.00;93.00;;;;;;4997504;28;20474;-80
2022/08/18 11:35:18;;;;;;;10.37;9.47;;;26.80;92.90;;;;;;4996972;28;20461;-80
2022/08/18 11:37:48;;;;;;;10.73;9.93;;;26.70;93.00;;;;;;4996161;28;20464;-84
2022/08/18 11:40:36;;;;;;;10.67;9.87;;;26.60;93.60;;;;;;4982739;28;20456;-80
2022/08/18 11:43:10;;;;;;;11.53;10.60;;;26.70;93.60;;;;;;4984790;28;20447;-80
2022/08/18 11:45:53;;;;;;;11.43;10.33;;;26.70;93.30;;;;;;4987743;28;20487;-80
2022/08/18 11:48:24;;;;;;;10.23;9.53;;;26.40;93.30;;;;;;4985092;28;20436;-80
2022/08/18 11:51:10;;;;;;;11.13;10.30;;;26.50;94.00;;;;;;4986075;28;21044;-80
2022/08/18 11:53:42;;;;;;;12.03;10.93;;;26.80;93.80;;;;;;4992405;28;20493;-80
2022/08/18 11:56:23;;;;;;;12.17;11.30;;;26.70;93.50;;;;;;4996258;28;20478;-80
2022/08/18 11:58:53;;;;;;;10.40;9.70;;;27.10;93.40;;;;;;4988351;28;20449;-80
2022/08/18 12:01:37;;;;;;;11.80;10.90;;;27.70;92.60;;;;;;4976484;28;20546;-80
2022/08/18 12:04:13;;;;;;;10.63;9.73;;;28.40;91.40;;;;;;4978967;28;20439;-82
2022/08/18 12:06:58;;;;;;;11.00;10.13;;;28.50;90.40;;;;;;4988239;28;20481;-81
2022/08/18 12:09:31;;;;;;;11.33;10.43;;;28.20;90.70;;;;;;4990205;28;20462;-82
2022/08/18 12:12:01;;;;;;;12.77;11.77;;;28.40;90.30;;;;;;4982497;28;20543;-82
2022/08/18 12:14:30;;;;;;;11.30;10.50;;;28.60;89.80;;;;;;4998121;28;20462;-82
2022/08/18 12:16:57;;;;;;;12.27;11.27;;;29.20;89.70;;;;;;4994027;28;20447;-82
2022/08/18 12:19:26;;;;;;;11.40;10.60;;;29.10;88.30;;;;;;4977703;28;20463;-81
2022/08/18 12:21:57;;;;;;;12.57;11.67;;;28.90;88.00;;;;;;4976729;28;20478;-81
2022/08/18 12:24:26;;;;;;;12.03;11.03;;;28.80;87.10;;;;;;4992915;28;20542;-81
2022/08/18 12:26:54;;;;;;;10.77;9.93;;;28.40;87.80;;;;;;4990439;28;20491;-81
2022/08/18 12:29:21;;;;;;;12.60;11.53;;;29.00;86.50;;;;;;4973512;28;20832;-81
2022/08/18 12:31:50;;;;;;;12.47;11.43;;;28.80;86.20;;;;;;4988749;28;20489;-81
2022/08/18 12:34:18;;;;;;;11.07;9.97;;;28.60;86.90;;;;;;4975779;28;20960;-81
2022/08/18 12:36:45;;;;;;;12.37;11.27;;;28.40;87.30;;;;;;4994757;28;20544;-81
2022/08/18 12:39:13;;;;;;;11.10;10.30;;;28.50;86.40;;;;;;4995958;28;20458;-81
2022/08/18 12:41:40;;;;;;;10.83;10.13;;;29.00;86.10;;;;;;4978915;28;21035;-81
2022/08/18 12:44:07;;;;;;;8.63;7.90;;;29.40;83.40;;;;;;4983803;28;20452;-81
2022/08/18 12:46:34;;;;;;;9.57;8.70;;;30.20;79.90;;;;;;4980065;28;20998;-81
2022/08/18 12:49:02;;;;;;;10.80;10.10;;;31.00;77.50;;;;;;4996253;28;20455;-81
2022/08/18 12:51:29;;;;;;;10.53;9.67;;;31.40;73.80;;;;;;4977482;28;20484;-81
2022/08/18 12:53:56;;;;;;;11.27;10.47;;;31.80;72.20;;;;;;4976626;28;20801;-81
2022/08/18 12:56:26;;;;;;;12.90;11.90;;;31.10;72.40;;;;;;4981373;28;20459;-81
2022/08/18 12:58:53;;;;;;;10.87;10.17;;;30.40;75.10;;;;;;4979211;28;20454;-81
2022/08/18 13:01:20;;;;;;;10.53;9.83;;;30.30;76.80;;;;;;4993031;28;20479;-81
2022/08/18 13:03:47;;;;;;;9.80;9.20;;;30.70;76.40;;;;;;4989837;28;20457;-81
2022/08/18 13:06:14;;;;;;;9.50;8.80;;;30.50;72.90;;;;;;4996498;28;20491;-81
2022/08/18 13:08:41;;;;;;;9.63;9.03;;;29.70;72.20;;;;;;4986470;28;20650;-81
2022/08/18 13:11:09;;;;;;;8.70;8.10;;;29.60;73.60;;;;;;4980177;28;20475;-81
2022/08/18 13:13:39;;;;;;;10.73;9.90;;;30.10;74.00;;;;;;4979061;28;20894;-81
2022/08/18 13:16:06;;;;;;;9.57;8.77;;;30.50;74.20;;;;;;4977749;28;20467;-81
2022/08/18 13:18:33;;;;;;;10.37;9.50;;;31.30;73.70;;;;;;4985942;28;20499;-81
2022/08/18 13:21:01;;;;;;;12.47;11.57;;;31.90;71.30;;;;;;4997935;28;20506;-82
2022/08/18 13:23:29;;;;;;;9.57;8.87;;;32.60;69.50;;;;;;4988984;28;20491;-82
2022/08/18 13:25:57;;;;;;;9.97;9.20;;;33.00;65.90;;;;;;4977441;28;20466;-82
2022/08/18 13:28:24;;;;;;;10.17;9.47;;;32.60;65.20;;;;;;4988413;28;20434;-80